EDDG

Münster Osnabrück Airport

Münster, Germany
METAR EDDG 200050Z 21010KT 9999 SCT015 BKN060 02/01 Q1007 TEMPO 3000 SHSNRA BKN013CB
Observed Flight Rules
Jan-20 @ 00:50 UTC (32 minutes ago) Visual Flight Rules
Wind Visibility Clouds
210° at 10 knots 10,000+ meters
  • Scattered at 1,500' AGL
  • Broken at 6,000' AGL
Temperatures Readings
Current 2°C / 36°F
Dewpoint 1°C / 34°F
Humidity 93%
Altimeter 29.73" Hg
Pressure 1007 hPa
Elevation 52
METAR EDDG 200050Z 21010KT 9999 SCT015 BKN060 02/01 Q1007 TEMPO 3000 SHSNRA BKN013CB
Observed Flight Rules
Jan-20 @ 00:50 UTC
(32 minutes ago)
VFR
Wind Visibility
210° at 10 knots 10,000+ meters
Clouds
  • Scattered at 1,500' AGL
  • Broken at 6,000' AGL
Temperature Dewpoint
2°C / 36°F 1°C / 34°F
Humidity Altimeter Pressure
93% 29.73" Hg 1007 hPa